Terminal Aerodrome Forecast
Issued by NWS

Home | Current Version | Previous Version | Graphics & Text | Print | Product List | Glossary On
Versions: 1 2 3 4 5 6 7 8 9 10 11 12
163
FTUS43 KMPX 161720
TAFRWF
TAF
KRWF 161720Z 1618/1718 20015G22KT P6SM SKC
     FM162300 20008KT P6SM SCT250
     FM170600 22005KT P6SM SKC
     FM171400 19003KT P6SM SKC=

USA.gov is the U.S. government's official web portal to all federal, state and local government web resources and services.